sensor_id;sensor_type;location;lat;lon;timestamp;P1;P2;P0
82667;PMS5003;72691;51.374;-0.176;2024-02-21T00:01:43;8;8;
82667;PMS5003;72691;51.374;-0.176;2024-02-21T00:04:09;7;7;
82667;PMS5003;72691;51.374;-0.176;2024-02-21T00:06:34;9;7;
82667;PMS5003;72691;51.374;-0.176;2024-02-21T00:09:00;5;5;
82667;PMS5003;72691;51.374;-0.176;2024-02-21T00:11:25;7;7;
82667;PMS5003;72691;51.374;-0.176;2024-02-21T00:13:50;4;4;
82667;PMS5003;72691;51.374;-0.176;2024-02-21T00:16:16;9;8;
82667;PMS5003;72691;51.374;-0.176;2024-02-21T00:18:41;10;9;
82667;PMS5003;72691;51.374;-0.176;2024-02-21T00:21:07;8;7;
82667;PMS5003;72691;51.374;-0.176;2024-02-21T00:23:32;8;7;
82667;PMS5003;72691;51.374;-0.176;2024-02-21T00:25:57;7;7;
82667;PMS5003;72691;51.374;-0.176;2024-02-21T00:28:23;11;9;
82667;PMS5003;72691;51.374;-0.176;2024-02-21T00:30:48;7;7;
82667;PMS5003;72691;51.374;-0.176;2024-02-21T00:33:13;7;7;
82667;PMS5003;72691;51.374;-0.176;2024-02-21T00:35:39;8;7;
82667;PMS5003;72691;51.374;-0.176;2024-02-21T00:38:04;10;9;
82667;PMS5003;72691;51.374;-0.176;2024-02-21T00:40:30;5;5;
82667;PMS5003;72691;51.374;-0.176;2024-02-21T00:42:55;5;5;
82667;PMS5003;72691;51.374;-0.176;2024-02-21T00:45:20;4;4;
82667;PMS5003;72691;51.374;-0.176;2024-02-21T00:47:45;7;4;
82667;PMS5003;72691;51.374;-0.176;2024-02-21T00:50:11;5;5;
82667;PMS5003;72691;51.374;-0.176;2024-02-21T00:52:36;5;4;
82667;PMS5003;72691;51.374;-0.176;2024-02-21T00:55:02;5;5;
82667;PMS5003;72691;51.374;-0.176;2024-02-21T00:57:27;5;5;
82667;PMS5003;72691;51.374;-0.176;2024-02-21T00:59:53;5;5;
82667;PMS5003;72691;51.374;-0.176;2024-02-21T01:02:18;5;5;
82667;PMS5003;72691;51.374;-0.176;2024-02-21T01:04:43;4;3;
82667;PMS5003;72691;51.374;-0.176;2024-02-21T01:07:09;7;7;
82667;PMS5003;72691;51.374;-0.176;2024-02-21T01:09:34;5;5;
82667;PMS5003;72691;51.374;-0.176;2024-02-21T01:12:00;4;3;
82667;PMS5003;72691;51.374;-0.176;2024-02-21T01:14:25;5;5;
82667;PMS5003;72691;51.374;-0.176;2024-02-21T01:16:51;4;4;
82667;PMS5003;72691;51.374;-0.176;2024-02-21T01:19:16;5;5;
82667;PMS5003;72691;51.374;-0.176;2024-02-21T01:21:42;5;5;
82667;PMS5003;72691;51.374;-0.176;2024-02-21T01:24:07;4;4;
82667;PMS5003;72691;51.374;-0.176;2024-02-21T01:26:32;5;5;
82667;PMS5003;72691;51.374;-0.176;2024-02-21T01:28:58;4;4;
82667;PMS5003;72691;51.374;-0.176;2024-02-21T01:31:23;7;4;
82667;PMS5003;72691;51.374;-0.176;2024-02-21T01:33:49;4;4;
82667;PMS5003;72691;51.374;-0.176;2024-02-21T01:36:14;3;2;
82667;PMS5003;72691;51.374;-0.176;2024-02-21T01:38:40;5;5;
82667;PMS5003;72691;51.374;-0.176;2024-02-21T01:41:05;5;5;
82667;PMS5003;72691;51.374;-0.176;2024-02-21T01:43:30;5;5;
82667;PMS5003;72691;51.374;-0.176;2024-02-21T01:45:56;5;5;
82667;PMS5003;72691;51.374;-0.176;2024-02-21T01:48:22;5;5;
82667;PMS5003;72691;51.374;-0.176;2024-02-21T01:50:47;8;5;
82667;PMS5003;72691;51.374;-0.176;2024-02-21T01:53:12;7;6;
82667;PMS5003;72691;51.374;-0.176;2024-02-21T01:55:38;5;5;
82667;PMS5003;72691;51.374;-0.176;2024-02-21T01:58:03;8;7;
82667;PMS5003;72691;51.374;-0.176;2024-02-21T02:00:29;5;5;
82667;PMS5003;72691;51.374;-0.176;2024-02-21T02:02:54;7;7;
82667;PMS5003;72691;51.374;-0.176;2024-02-21T02:05:20;9;7;
82667;PMS5003;72691;51.374;-0.176;2024-02-21T02:07:45;5;5;
82667;PMS5003;72691;51.374;-0.176;2024-02-21T02:10:10;8;7;
82667;PMS5003;72691;51.374;-0.176;2024-02-21T02:12:36;7;7;
82667;PMS5003;72691;51.374;-0.176;2024-02-21T02:15:02;8;8;
82667;PMS5003;72691;51.374;-0.176;2024-02-21T02:17:26;8;8;
82667;PMS5003;72691;51.374;-0.176;2024-02-21T02:19:52;5;5;
82667;PMS5003;72691;51.374;-0.176;2024-02-21T02:22:18;9;8;
82667;PMS5003;72691;51.374;-0.176;2024-02-21T02:24:42;4;3;
82667;PMS5003;72691;51.374;-0.176;2024-02-21T02:27:07;4;4;
82667;PMS5003;72691;51.374;-0.176;2024-02-21T02:29:32;8;8;
82667;PMS5003;72691;51.374;-0.176;2024-02-21T02:31:58;4;4;
82667;PMS5003;72691;51.374;-0.176;2024-02-21T02:34:23;8;8;
82667;PMS5003;72691;51.374;-0.176;2024-02-21T02:36:49;5;4;
82667;PMS5003;72691;51.374;-0.176;2024-02-21T02:39:14;7;5;
82667;PMS5003;72691;51.374;-0.176;2024-02-21T02:41:39;9;8;
82667;PMS5003;72691;51.374;-0.176;2024-02-21T02:44:05;4;4;
82667;PMS5003;72691;51.374;-0.176;2024-02-21T02:46:30;5;4;
82667;PMS5003;72691;51.374;-0.176;2024-02-21T02:48:55;7;5;
82667;PMS5003;72691;51.374;-0.176;2024-02-21T02:51:21;5;5;
82667;PMS5003;72691;51.374;-0.176;2024-02-21T02:53:46;5;4;
82667;PMS5003;72691;51.374;-0.176;2024-02-21T02:56:14;8;7;
82667;PMS5003;72691;51.374;-0.176;2024-02-21T02:58:37;8;8;
82667;PMS5003;72691;51.374;-0.176;2024-02-21T03:01:02;5;5;
82667;PMS5003;72691;51.374;-0.176;2024-02-21T03:03:28;7;5;
82667;PMS5003;72691;51.374;-0.176;2024-02-21T03:05:53;3;3;
82667;PMS5003;72691;51.374;-0.176;2024-02-21T03:08:18;8;8;
82667;PMS5003;72691;51.374;-0.176;2024-02-21T03:10:43;8;7;
82667;PMS5003;72691;51.374;-0.176;2024-02-21T03:13:09;8;7;
82667;PMS5003;72691;51.374;-0.176;2024-02-21T03:15:33;5;5;
82667;PMS5003;72691;51.374;-0.176;2024-02-21T03:17:59;10;8;
82667;PMS5003;72691;51.374;-0.176;2024-02-21T03:20:25;8;7;
82667;PMS5003;72691;51.374;-0.176;2024-02-21T03:22:50;5;4;
82667;PMS5003;72691;51.374;-0.176;2024-02-21T03:25:15;7;6;
82667;PMS5003;72691;51.374;-0.176;2024-02-21T03:27:40;7;7;
82667;PMS5003;72691;51.374;-0.176;2024-02-21T03:30:06;7;7;
82667;PMS5003;72691;51.374;-0.176;2024-02-21T03:32:31;4;4;
82667;PMS5003;72691;51.374;-0.176;2024-02-21T03:34:56;8;5;
82667;PMS5003;72691;51.374;-0.176;2024-02-21T03:37:22;6;6;
82667;PMS5003;72691;51.374;-0.176;2024-02-21T03:39:47;4;4;
82667;PMS5003;72691;51.374;-0.176;2024-02-21T03:42:13;6;4;
82667;PMS5003;72691;51.374;-0.176;2024-02-21T03:44:38;6;4;
82667;PMS5003;72691;51.374;-0.176;2024-02-21T03:47:04;7;5;
82667;PMS5003;72691;51.374;-0.176;2024-02-21T03:49:29;5;4;
82667;PMS5003;72691;51.374;-0.176;2024-02-21T03:51:55;7;5;
82667;PMS5003;72691;51.374;-0.176;2024-02-21T03:54:20;8;7;
82667;PMS5003;72691;51.374;-0.176;2024-02-21T03:56:46;5;5;
82667;PMS5003;72691;51.374;-0.176;2024-02-21T03:59:11;9;7;
82667;PMS5003;72691;51.374;-0.176;2024-02-21T04:01:36;7;7;
82667;PMS5003;72691;51.374;-0.176;2024-02-21T04:04:02;7;5;
82667;PMS5003;72691;51.374;-0.176;2024-02-21T04:06:27;7;6;
82667;PMS5003;72691;51.374;-0.176;2024-02-21T04:08:54;5;4;
82667;PMS5003;72691;51.374;-0.176;2024-02-21T04:11:18;7;7;
82667;PMS5003;72691;51.374;-0.176;2024-02-21T04:13:43;7;6;
82667;PMS5003;72691;51.374;-0.176;2024-02-21T04:16:09;4;4;
82667;PMS5003;72691;51.374;-0.176;2024-02-21T04:18:35;8;6;
82667;PMS5003;72691;51.374;-0.176;2024-02-21T04:21:00;4;4;
82667;PMS5003;72691;51.374;-0.176;2024-02-21T04:23:26;6;4;
82667;PMS5003;72691;51.374;-0.176;2024-02-21T04:25:51;5;5;
82667;PMS5003;72691;51.374;-0.176;2024-02-21T04:28:17;4;4;
82667;PMS5003;72691;51.374;-0.176;2024-02-21T04:30:42;8;8;
82667;PMS5003;72691;51.374;-0.176;2024-02-21T04:33:07;7;7;
82667;PMS5003;72691;51.374;-0.176;2024-02-21T04:35:33;5;5;
82667;PMS5003;72691;51.374;-0.176;2024-02-21T04:37:58;4;4;
82667;PMS5003;72691;51.374;-0.176;2024-02-21T04:40:25;10;9;
82667;PMS5003;72691;51.374;-0.176;2024-02-21T04:42:49;4;4;
82667;PMS5003;72691;51.374;-0.176;2024-02-21T04:45:15;6;6;
82667;PMS5003;72691;51.374;-0.176;2024-02-21T04:47:40;7;6;
82667;PMS5003;72691;51.374;-0.176;2024-02-21T04:50:06;5;4;
82667;PMS5003;72691;51.374;-0.176;2024-02-21T04:52:32;3;3;
82667;PMS5003;72691;51.374;-0.176;2024-02-21T04:54:57;5;4;
82667;PMS5003;72691;51.374;-0.176;2024-02-21T04:57:22;6;6;
82667;PMS5003;72691;51.374;-0.176;2024-02-21T04:59:47;5;5;
82667;PMS5003;72691;51.374;-0.176;2024-02-21T05:02:13;4;4;
82667;PMS5003;72691;51.374;-0.176;2024-02-21T05:04:38;4;4;
82667;PMS5003;72691;51.374;-0.176;2024-02-21T05:07:04;2;2;
82667;PMS5003;72691;51.374;-0.176;2024-02-21T05:09:29;7;5;
82667;PMS5003;72691;51.374;-0.176;2024-02-21T05:11:54;4;4;
82667;PMS5003;72691;51.374;-0.176;2024-02-21T05:14:20;7;4;
82667;PMS5003;72691;51.374;-0.176;2024-02-21T05:16:45;4;4;
82667;PMS5003;72691;51.374;-0.176;2024-02-21T05:19:10;6;4;
82667;PMS5003;72691;51.374;-0.176;2024-02-21T05:21:36;6;6;
82667;PMS5003;72691;51.374;-0.176;2024-02-21T05:24:01;2;2;
82667;PMS5003;72691;51.374;-0.176;2024-02-21T05:26:27;6;4;
82667;PMS5003;72691;51.374;-0.176;2024-02-21T05:28:52;4;4;
82667;PMS5003;72691;51.374;-0.176;2024-02-21T05:31:17;4;4;
82667;PMS5003;72691;51.374;-0.176;2024-02-21T05:33:43;5;5;
82667;PMS5003;72691;51.374;-0.176;2024-02-21T05:36:09;6;4;
82667;PMS5003;72691;51.374;-0.176;2024-02-21T05:38:34;4;4;
82667;PMS5003;72691;51.374;-0.176;2024-02-21T05:40:59;6;6;
82667;PMS5003;72691;51.374;-0.176;2024-02-21T05:43:24;4;4;
82667;PMS5003;72691;51.374;-0.176;2024-02-21T05:45:50;6;4;
82667;PMS5003;72691;51.374;-0.176;2024-02-21T05:48:15;6;4;
82667;PMS5003;72691;51.374;-0.176;2024-02-21T05:50:41;7;7;
82667;PMS5003;72691;51.374;-0.176;2024-02-21T05:53:06;4;4;
82667;PMS5003;72691;51.374;-0.176;2024-02-21T05:55:31;6;4;
82667;PMS5003;72691;51.374;-0.176;2024-02-21T05:57:57;3;3;
82667;PMS5003;72691;51.374;-0.176;2024-02-21T06:00:22;4;4;
82667;PMS5003;72691;51.374;-0.176;2024-02-21T06:02:48;7;7;
82667;PMS5003;72691;51.374;-0.176;2024-02-21T06:05:13;6;4;
82667;PMS5003;72691;51.374;-0.176;2024-02-21T06:07:40;6;4;
82667;PMS5003;72691;51.374;-0.176;2024-02-21T06:10:05;4;4;
82667;PMS5003;72691;51.374;-0.176;2024-02-21T06:12:30;4;4;
82667;PMS5003;72691;51.374;-0.176;2024-02-21T06:14:55;7;5;
82667;PMS5003;72691;51.374;-0.176;2024-02-21T06:17:21;4;4;
82667;PMS5003;72691;51.374;-0.176;2024-02-21T06:19:46;7;7;
82667;PMS5003;72691;51.374;-0.176;2024-02-21T06:22:12;4;3;
82667;PMS5003;72691;51.374;-0.176;2024-02-21T06:24:37;7;4;
82667;PMS5003;72691;51.374;-0.176;2024-02-21T06:27:03;3;3;
82667;PMS5003;72691;51.374;-0.176;2024-02-21T06:29:28;6;4;
82667;PMS5003;72691;51.374;-0.176;2024-02-21T06:31:54;6;6;
82667;PMS5003;72691;51.374;-0.176;2024-02-21T06:34:19;6;4;
82667;PMS5003;72691;51.374;-0.176;2024-02-21T06:36:44;4;4;
82667;PMS5003;72691;51.374;-0.176;2024-02-21T06:39:10;3;3;
82667;PMS5003;72691;51.374;-0.176;2024-02-21T06:41:35;3;3;
82667;PMS5003;72691;51.374;-0.176;2024-02-21T06:44:01;6;4;
82667;PMS5003;72691;51.374;-0.176;2024-02-21T06:46:26;6;4;
82667;PMS5003;72691;51.374;-0.176;2024-02-21T06:48:52;2;2;
82667;PMS5003;72691;51.374;-0.176;2024-02-21T06:51:17;6;4;
82667;PMS5003;72691;51.374;-0.176;2024-02-21T06:53:42;3;3;
82667;PMS5003;72691;51.374;-0.176;2024-02-21T06:56:08;6;4;
82667;PMS5003;72691;51.374;-0.176;2024-02-21T06:58:33;4;4;
82667;PMS5003;72691;51.374;-0.176;2024-02-21T07:00:59;3;3;
82667;PMS5003;72691;51.374;-0.176;2024-02-21T07:03:24;4;3;
82667;PMS5003;72691;51.374;-0.176;2024-02-21T07:05:50;4;3;
82667;PMS5003;72691;51.374;-0.176;2024-02-21T07:08:15;4;3;
82667;PMS5003;72691;51.374;-0.176;2024-02-21T07:10:41;3;3;
82667;PMS5003;72691;51.374;-0.176;2024-02-21T07:13:06;3;3;
82667;PMS5003;72691;51.374;-0.176;2024-02-21T07:15:32;3;3;
82667;PMS5003;72691;51.374;-0.176;2024-02-21T07:17:57;4;3;
82667;PMS5003;72691;51.374;-0.176;2024-02-21T07:20:22;3;3;
82667;PMS5003;72691;51.374;-0.176;2024-02-21T07:22:48;4;2;
82667;PMS5003;72691;51.374;-0.176;2024-02-21T07:25:13;2;2;
82667;PMS5003;72691;51.374;-0.176;2024-02-21T07:27:38;2;2;
82667;PMS5003;72691;51.374;-0.176;2024-02-21T07:30:04;3;3;
82667;PMS5003;72691;51.374;-0.176;2024-02-21T07:32:29;3;3;
82667;PMS5003;72691;51.374;-0.176;2024-02-21T07:34:55;3;3;
82667;PMS5003;72691;51.374;-0.176;2024-02-21T07:37:20;4;4;
82667;PMS5003;72691;51.374;-0.176;2024-02-21T07:39:45;3;3;
82667;PMS5003;72691;51.374;-0.176;2024-02-21T07:42:11;3;3;
82667;PMS5003;72691;51.374;-0.176;2024-02-21T07:44:36;4;4;
82667;PMS5003;72691;51.374;-0.176;2024-02-21T07:47:02;6;6;
82667;PMS5003;72691;51.374;-0.176;2024-02-21T07:49:27;8;7;
82667;PMS5003;72691;51.374;-0.176;2024-02-21T07:51:52;4;4;
82667;PMS5003;72691;51.374;-0.176;2024-02-21T07:54:18;3;3;
82667;PMS5003;72691;51.374;-0.176;2024-02-21T07:56:43;7;6;
82667;PMS5003;72691;51.374;-0.176;2024-02-21T07:59:08;4;4;
82667;PMS5003;72691;51.374;-0.176;2024-02-21T08:01:34;7;6;
82667;PMS5003;72691;51.374;-0.176;2024-02-21T08:03:59;4;4;
82667;PMS5003;72691;51.374;-0.176;2024-02-21T08:06:25;4;4;
82667;PMS5003;72691;51.374;-0.176;2024-02-21T08:08:50;3;3;
82667;PMS5003;72691;51.374;-0.176;2024-02-21T08:11:15;7;6;
82667;PMS5003;72691;51.374;-0.176;2024-02-21T08:13:41;6;6;
82667;PMS5003;72691;51.374;-0.176;2024-02-21T08:16:06;4;4;
82667;PMS5003;72691;51.374;-0.176;2024-02-21T08:18:31;4;3;
82667;PMS5003;72691;51.374;-0.176;2024-02-21T08:20:57;6;4;
82667;PMS5003;72691;51.374;-0.176;2024-02-21T08:23:23;4;3;
82667;PMS5003;72691;51.374;-0.176;2024-02-21T08:25:48;4;3;
82667;PMS5003;72691;51.374;-0.176;2024-02-21T08:28:13;3;3;
82667;PMS5003;72691;51.374;-0.176;2024-02-21T08:30:38;4;4;
82667;PMS5003;72691;51.374;-0.176;2024-02-21T08:33:04;4;3;
82667;PMS5003;72691;51.374;-0.176;2024-02-21T08:35:29;3;3;
82667;PMS5003;72691;51.374;-0.176;2024-02-21T08:37:55;3;3;
82667;PMS5003;72691;51.374;-0.176;2024-02-21T08:40:20;4;4;
82667;PMS5003;72691;51.374;-0.176;2024-02-21T08:42:46;4;4;
82667;PMS5003;72691;51.374;-0.176;2024-02-21T08:45:11;4;4;
82667;PMS5003;72691;51.374;-0.176;2024-02-21T08:47:39;7;6;
82667;PMS5003;72691;51.374;-0.176;2024-02-21T08:50:02;3;3;
82667;PMS5003;72691;51.374;-0.176;2024-02-21T08:52:27;6;4;
82667;PMS5003;72691;51.374;-0.176;2024-02-21T08:54:53;2;2;
82667;PMS5003;72691;51.374;-0.176;2024-02-21T08:57:18;2;2;
82667;PMS5003;72691;51.374;-0.176;2024-02-21T08:59:44;3;3;
82667;PMS5003;72691;51.374;-0.176;2024-02-21T09:02:09;3;3;
82667;PMS5003;72691;51.374;-0.176;2024-02-21T09:04:35;6;6;
82667;PMS5003;72691;51.374;-0.176;2024-02-21T09:07:00;3;3;
82667;PMS5003;72691;51.374;-0.176;2024-02-21T09:09:25;3;3;
82667;PMS5003;72691;51.374;-0.176;2024-02-21T09:11:51;4;3;
82667;PMS5003;72691;51.374;-0.176;2024-02-21T09:14:17;3;3;
82667;PMS5003;72691;51.374;-0.176;2024-02-21T09:16:42;4;3;
82667;PMS5003;72691;51.374;-0.176;2024-02-21T09:19:07;3;3;
82667;PMS5003;72691;51.374;-0.176;2024-02-21T09:21:33;3;3;
82667;PMS5003;72691;51.374;-0.176;2024-02-21T09:23:58;2;2;
82667;PMS5003;72691;51.374;-0.176;2024-02-21T09:26:24;6;6;
82667;PMS5003;72691;51.374;-0.176;2024-02-21T09:28:49;4;3;
82667;PMS5003;72691;51.374;-0.176;2024-02-21T09:31:14;4;4;
82667;PMS5003;72691;51.374;-0.176;2024-02-21T09:33:40;3;3;
82667;PMS5003;72691;51.374;-0.176;2024-02-21T09:36:06;4;4;
82667;PMS5003;72691;51.374;-0.176;2024-02-21T09:38:31;4;3;
82667;PMS5003;72691;51.374;-0.176;2024-02-21T09:40:58;3;3;
82667;PMS5003;72691;51.374;-0.176;2024-02-21T09:43:22;3;3;
82667;PMS5003;72691;51.374;-0.176;2024-02-21T09:45:47;3;3;
82667;PMS5003;72691;51.374;-0.176;2024-02-21T09:48:18;2;2;
82667;PMS5003;72691;51.374;-0.176;2024-02-21T09:50:39;3;2;
82667;PMS5003;72691;51.374;-0.176;2024-02-21T09:53:03;2;2;
82667;PMS5003;72691;51.374;-0.176;2024-02-21T09:55:29;4;3;
82667;PMS5003;72691;51.374;-0.176;2024-02-21T09:57:54;2;2;
82667;PMS5003;72691;51.374;-0.176;2024-02-21T10:00:20;3;3;
82667;PMS5003;72691;51.374;-0.176;2024-02-21T10:02:45;3;3;
82667;PMS5003;72691;51.374;-0.176;2024-02-21T10:05:11;3;3;
82667;PMS5003;72691;51.374;-0.176;2024-02-21T10:07:36;3;2;
82667;PMS5003;72691;51.374;-0.176;2024-02-21T10:10:02;2;2;
82667;PMS5003;72691;51.374;-0.176;2024-02-21T10:12:27;4;3;
82667;PMS5003;72691;51.374;-0.176;2024-02-21T10:17:18;2;2;
82667;PMS5003;72691;51.374;-0.176;2024-02-21T10:19:43;3;2;
82667;PMS5003;72691;51.374;-0.176;2024-02-21T10:22:09;2;2;
82667;PMS5003;72691;51.374;-0.176;2024-02-21T10:24:35;3;3;
82667;PMS5003;72691;51.374;-0.176;2024-02-21T10:27:02;1;1;
82667;PMS5003;72691;51.374;-0.176;2024-02-21T10:29:26;2;2;
82667;PMS5003;72691;51.374;-0.176;2024-02-21T10:31:50;3;2;
82667;PMS5003;72691;51.374;-0.176;2024-02-21T10:34:16;3;3;
82667;PMS5003;72691;51.374;-0.176;2024-02-21T10:36:41;2;1;
82667;PMS5003;72691;51.374;-0.176;2024-02-21T10:39:07;2;2;
82667;PMS5003;72691;51.374;-0.176;2024-02-21T10:41:32;1;1;
82667;PMS5003;72691;51.374;-0.176;2024-02-21T10:43:58;1;1;
82667;PMS5003;72691;51.374;-0.176;2024-02-21T10:46:23;1;1;
82667;PMS5003;72691;51.374;-0.176;2024-02-21T10:48:52;1;1;
82667;PMS5003;72691;51.374;-0.176;2024-02-21T10:51:15;1;1;
82667;PMS5003;72691;51.374;-0.176;2024-02-21T10:53:40;1;1;
82667;PMS5003;72691;51.374;-0.176;2024-02-21T10:56:07;2;2;
82667;PMS5003;72691;51.374;-0.176;2024-02-21T10:58:30;1;1;
82667;PMS5003;72691;51.374;-0.176;2024-02-21T11:00:56;2;2;
82667;PMS5003;72691;51.374;-0.176;2024-02-21T11:03:21;3;3;
82667;PMS5003;72691;51.374;-0.176;2024-02-21T11:05:47;1;1;
82667;PMS5003;72691;51.374;-0.176;2024-02-21T11:08:12;2;2;
82667;PMS5003;72691;51.374;-0.176;2024-02-21T11:10:37;3;3;
82667;PMS5003;72691;51.374;-0.176;2024-02-21T11:13:07;2;2;
82667;PMS5003;72691;51.374;-0.176;2024-02-21T11:15:29;3;3;
82667;PMS5003;72691;51.374;-0.176;2024-02-21T11:17:56;1;1;
82667;PMS5003;72691;51.374;-0.176;2024-02-21T11:20:20;1;1;
82667;PMS5003;72691;51.374;-0.176;2024-02-21T11:22:45;1;1;
82667;PMS5003;72691;51.374;-0.176;2024-02-21T11:25:11;0;0;
82667;PMS5003;72691;51.374;-0.176;2024-02-21T11:27:36;1;0;
82667;PMS5003;72691;51.374;-0.176;2024-02-21T11:30:04;0;0;
82667;PMS5003;72691;51.374;-0.176;2024-02-21T11:32:27;0;0;
82667;PMS5003;72691;51.374;-0.176;2024-02-21T11:34:53;1;1;
82667;PMS5003;72691;51.374;-0.176;2024-02-21T11:37:18;1;1;
82667;PMS5003;72691;51.374;-0.176;2024-02-21T11:39:43;0;0;
82667;PMS5003;72691;51.374;-0.176;2024-02-21T11:42:09;0;0;
82667;PMS5003;72691;51.374;-0.176;2024-02-21T11:44:34;0;0;
82667;PMS5003;72691;51.374;-0.176;2024-02-21T11:47:00;2;1;
82667;PMS5003;72691;51.374;-0.176;2024-02-21T11:49:25;0;0;
82667;PMS5003;72691;51.374;-0.176;2024-02-21T11:54:16;0;0;
82667;PMS5003;72691;51.374;-0.176;2024-02-21T11:56:41;1;0;
82667;PMS5003;72691;51.374;-0.176;2024-02-21T11:59:07;1;1;
82667;PMS5003;72691;51.374;-0.176;2024-02-21T12:01:32;1;1;
82667;PMS5003;72691;51.374;-0.176;2024-02-21T12:03:57;0;0;
82667;PMS5003;72691;51.374;-0.176;2024-02-21T12:06:23;0;0;
82667;PMS5003;72691;51.374;-0.176;2024-02-21T12:08:50;0;0;
82667;PMS5003;72691;51.374;-0.176;2024-02-21T12:13:39;1;0;
82667;PMS5003;72691;51.374;-0.176;2024-02-21T12:16:05;1;1;
82667;PMS5003;72691;51.374;-0.176;2024-02-21T12:18:30;0;0;
82667;PMS5003;72691;51.374;-0.176;2024-02-21T12:20:56;0;0;
82667;PMS5003;72691;51.374;-0.176;2024-02-21T12:23:21;1;1;
82667;PMS5003;72691;51.374;-0.176;2024-02-21T12:25:46;0;0;
82667;PMS5003;72691;51.374;-0.176;2024-02-21T12:28:12;0;0;
82667;PMS5003;72691;51.374;-0.176;2024-02-21T12:30:37;0;0;
82667;PMS5003;72691;51.374;-0.176;2024-02-21T12:33:03;0;0;
82667;PMS5003;72691;51.374;-0.176;2024-02-21T12:35:28;0;0;
82667;PMS5003;72691;51.374;-0.176;2024-02-21T12:37:53;0;0;
82667;PMS5003;72691;51.374;-0.176;2024-02-21T12:40:19;0;0;
82667;PMS5003;72691;51.374;-0.176;2024-02-21T12:42:44;0;0;
82667;PMS5003;72691;51.374;-0.176;2024-02-21T12:45:10;0;0;
82667;PMS5003;72691;51.374;-0.176;2024-02-21T12:47:35;0;0;
82667;PMS5003;72691;51.374;-0.176;2024-02-21T12:50:00;0;0;
82667;PMS5003;72691;51.374;-0.176;2024-02-21T12:52:26;0;0;
82667;PMS5003;72691;51.374;-0.176;2024-02-21T12:54:51;0;0;
82667;PMS5003;72691;51.374;-0.176;2024-02-21T12:57:17;0;0;
82667;PMS5003;72691;51.374;-0.176;2024-02-21T12:59:42;0;0;
82667;PMS5003;72691;51.374;-0.176;2024-02-21T13:02:07;0;0;
82667;PMS5003;72691;51.374;-0.176;2024-02-21T13:04:33;1;0;
82667;PMS5003;72691;51.374;-0.176;2024-02-21T13:06:58;0;0;
82667;PMS5003;72691;51.374;-0.176;2024-02-21T13:09:24;2;2;
82667;PMS5003;72691;51.374;-0.176;2024-02-21T13:11:49;0;0;
82667;PMS5003;72691;51.374;-0.176;2024-02-21T13:14:14;0;0;
82667;PMS5003;72691;51.374;-0.176;2024-02-21T13:16:40;0;0;
82667;PMS5003;72691;51.374;-0.176;2024-02-21T13:19:06;0;0;
82667;PMS5003;72691;51.374;-0.176;2024-02-21T13:21:31;0;0;
82667;PMS5003;72691;51.374;-0.176;2024-02-21T13:23:56;0;0;
82667;PMS5003;72691;51.374;-0.176;2024-02-21T13:26:22;1;0;
82667;PMS5003;72691;51.374;-0.176;2024-02-21T13:28:47;0;0;
82667;PMS5003;72691;51.374;-0.176;2024-02-21T13:31:12;0;0;
82667;PMS5003;72691;51.374;-0.176;2024-02-21T13:33:38;1;1;
82667;PMS5003;72691;51.374;-0.176;2024-02-21T13:36:03;1;0;
82667;PMS5003;72691;51.374;-0.176;2024-02-21T13:38:29;0;0;
82667;PMS5003;72691;51.374;-0.176;2024-02-21T13:40:54;0;0;
82667;PMS5003;72691;51.374;-0.176;2024-02-21T13:43:19;0;0;
82667;PMS5003;72691;51.374;-0.176;2024-02-21T13:48:10;1;1;
82667;PMS5003;72691;51.374;-0.176;2024-02-21T13:50:36;1;1;
82667;PMS5003;72691;51.374;-0.176;2024-02-21T13:53:01;0;0;
82667;PMS5003;72691;51.374;-0.176;2024-02-21T13:55:26;0;0;
82667;PMS5003;72691;51.374;-0.176;2024-02-21T13:57:52;1;0;
82667;PMS5003;72691;51.374;-0.176;2024-02-21T14:00:17;0;0;
82667;PMS5003;72691;51.374;-0.176;2024-02-21T14:02:43;0;0;
82667;PMS5003;72691;51.374;-0.176;2024-02-21T14:05:08;1;1;
82667;PMS5003;72691;51.374;-0.176;2024-02-21T14:07:33;0;0;
82667;PMS5003;72691;51.374;-0.176;2024-02-21T14:09:59;0;0;
82667;PMS5003;72691;51.374;-0.176;2024-02-21T14:12:24;0;0;
82667;PMS5003;72691;51.374;-0.176;2024-02-21T14:14:50;0;0;
82667;PMS5003;72691;51.374;-0.176;2024-02-21T14:17:15;0;0;
82667;PMS5003;72691;51.374;-0.176;2024-02-21T14:19:40;0;0;
82667;PMS5003;72691;51.374;-0.176;2024-02-21T14:22:05;1;1;
82667;PMS5003;72691;51.374;-0.176;2024-02-21T14:24:31;0;0;
82667;PMS5003;72691;51.374;-0.176;2024-02-21T14:26:56;0;0;
82667;PMS5003;72691;51.374;-0.176;2024-02-21T14:29:22;1;1;
82667;PMS5003;72691;51.374;-0.176;2024-02-21T14:31:47;0;0;
82667;PMS5003;72691;51.374;-0.176;2024-02-21T14:34:13;0;0;
82667;PMS5003;72691;51.374;-0.176;2024-02-21T14:36:38;0;0;
82667;PMS5003;72691;51.374;-0.176;2024-02-21T14:39:03;0;0;
82667;PMS5003;72691;51.374;-0.176;2024-02-21T14:41:29;0;0;
82667;PMS5003;72691;51.374;-0.176;2024-02-21T14:43:54;0;0;
82667;PMS5003;72691;51.374;-0.176;2024-02-21T14:46:20;1;1;
82667;PMS5003;72691;51.374;-0.176;2024-02-21T14:48:45;0;0;
82667;PMS5003;72691;51.374;-0.176;2024-02-21T14:51:11;0;0;
82667;PMS5003;72691;51.374;-0.176;2024-02-21T14:53:36;0;0;
82667;PMS5003;72691;51.374;-0.176;2024-02-21T14:56:01;0;0;
82667;PMS5003;72691;51.374;-0.176;2024-02-21T14:58:27;0;0;
82667;PMS5003;72691;51.374;-0.176;2024-02-21T15:00:52;0;0;
82667;PMS5003;72691;51.374;-0.176;2024-02-21T15:03:18;0;0;
82667;PMS5003;72691;51.374;-0.176;2024-02-21T15:05:43;0;0;
82667;PMS5003;72691;51.374;-0.176;2024-02-21T15:08:08;0;0;
82667;PMS5003;72691;51.374;-0.176;2024-02-21T15:10:34;0;0;
82667;PMS5003;72691;51.374;-0.176;2024-02-21T15:12:59;0;0;
82667;PMS5003;72691;51.374;-0.176;2024-02-21T15:15:25;0;0;
82667;PMS5003;72691;51.374;-0.176;2024-02-21T15:17:50;1;0;
82667;PMS5003;72691;51.374;-0.176;2024-02-21T15:20:15;0;0;
82667;PMS5003;72691;51.374;-0.176;2024-02-21T15:22:41;14;14;
82667;PMS5003;72691;51.374;-0.176;2024-02-21T15:25:07;1;1;
82667;PMS5003;72691;51.374;-0.176;2024-02-21T15:27:32;1;0;
82667;PMS5003;72691;51.374;-0.176;2024-02-21T15:29:57;0;0;
82667;PMS5003;72691;51.374;-0.176;2024-02-21T15:32:23;0;0;
82667;PMS5003;72691;51.374;-0.176;2024-02-21T15:34:48;1;0;
82667;PMS5003;72691;51.374;-0.176;2024-02-21T15:37:14;0;0;
82667;PMS5003;72691;51.374;-0.176;2024-02-21T15:39:39;0;0;
82667;PMS5003;72691;51.374;-0.176;2024-02-21T15:42:05;1;0;
82667;PMS5003;72691;51.374;-0.176;2024-02-21T15:44:30;0;0;
82667;PMS5003;72691;51.374;-0.176;2024-02-21T15:46:55;0;0;
82667;PMS5003;72691;51.374;-0.176;2024-02-21T15:49:20;0;0;
82667;PMS5003;72691;51.374;-0.176;2024-02-21T15:51:46;0;0;
82667;PMS5003;72691;51.374;-0.176;2024-02-21T15:54:11;0;0;
82667;PMS5003;72691;51.374;-0.176;2024-02-21T15:56:37;1;1;
82667;PMS5003;72691;51.374;-0.176;2024-02-21T15:59:02;0;0;
82667;PMS5003;72691;51.374;-0.176;2024-02-21T16:01:27;1;1;
82667;PMS5003;72691;51.374;-0.176;2024-02-21T16:03:53;0;0;
82667;PMS5003;72691;51.374;-0.176;2024-02-21T16:06:18;0;0;
82667;PMS5003;72691;51.374;-0.176;2024-02-21T16:08:44;0;0;
82667;PMS5003;72691;51.374;-0.176;2024-02-21T16:11:10;0;0;
82667;PMS5003;72691;51.374;-0.176;2024-02-21T16:13:35;0;0;
82667;PMS5003;72691;51.374;-0.176;2024-02-21T16:16:01;0;0;
82667;PMS5003;72691;51.374;-0.176;2024-02-21T16:18:25;0;0;
82667;PMS5003;72691;51.374;-0.176;2024-02-21T16:20:51;1;0;
82667;PMS5003;72691;51.374;-0.176;2024-02-21T16:23:16;0;0;
82667;PMS5003;72691;51.374;-0.176;2024-02-21T16:25:42;0;0;
82667;PMS5003;72691;51.374;-0.176;2024-02-21T16:28:07;0;0;
82667;PMS5003;72691;51.374;-0.176;2024-02-21T16:30:32;0;0;